Blue Grass Airport Lexington US
ICAO: KLEX
IATA: LEX
Category: Large
Scheduled Services: Yes

Elevation: 979 ft
TransAlt. 18000 ft.

Airport Communications:
LEXINGTON APP/DEP:120.15
ATIS:126.3
CLNC DEL:132.35
GND:121.9
LEXINGTON TWR:119.1
UNICOM:122.95

KLEX Zoom In..

Runways:

(A) RW 04 length 7004 ft width 150 ft
ILS 110.10 / hdg 46

(B) RW 09 length 4000 ft width 75 ft
---- / hdg 87

(C) RW 22 length 7004 ft width 150 ft
ILS 111.75 / hdg 226

(D) RW 27 length 4000 ft width 75 ft
---- / hdg 267

Location; KLEX
Day. 15 / Time. 22.54 Zulu
* Altimeter: 30.02
* Temperature: 28° c. 82.4°f.
* Wind from: 210° Speed 03 kn.
Dewpoint: 24° c.
Visibility: 8 Statute Miles.
Clouds: Few 1700 ft.
Clouds: Scattered 2100 ft.

KLEX 152254Z 21003KT 8SM FEW017 SCT021 28/24 A3002 RMK AO2 LTG DSNT S SLP153 T02830239


Wind From 210°
Speed 03 kn.

 
 
jpsmedia.com for Web Design worldairports.se 2018   terms of use